Time;durP1;ratioP1;P1;durP2;ratioP2;P2;SDS_P1;SDS_P2;PMS_P1;PMS_P2;Temp;Humidity;BMP_temperature;BMP_pressure;BME280_temperature;BME280_humidity;BME280_pressure;Samples;Min_cycle;Max_cycle;Signal;HPM_P1;HPM_P2
2022/03/22 00:01:14;;;;;;;36.55;16.38;;;9.80;99.90;;;;;;5011094;28;20025;-32
2022/03/22 00:03:43;;;;;;;48.85;18.17;;;9.70;99.90;;;;;;5013056;28;20044;-39
2022/03/22 00:06:09;;;;;;;35.25;16.45;;;9.70;99.90;;;;;;5012974;28;20018;-48
2022/03/22 00:08:35;;;;;;;39.33;17.10;;;9.70;99.90;;;;;;5012579;28;20072;-37
2022/03/22 00:11:00;;;;;;;36.80;16.60;;;9.70;99.90;;;;;;5012776;28;20072;-39
2022/03/22 00:13:28;;;;;;;38.50;17.05;;;9.70;99.90;;;;;;5012517;28;20529;-38
2022/03/22 00:15:55;;;;;;;;;;;9.70;99.90;;;;;;5013354;28;20018;-38
2022/03/22 00:18:22;;;;;;;35.05;16.60;;;9.70;99.90;;;;;;5012308;28;19910;-38
2022/03/22 00:20:49;;;;;;;36.42;16.80;;;9.60;99.90;;;;;;5012294;28;20034;-39
2022/03/22 00:23:14;;;;;;;33.83;17.30;;;9.60;99.90;;;;;;5012740;28;20065;-42
2022/03/22 00:25:40;;;;;;;35.67;16.42;;;9.60;99.90;;;;;;5010288;28;20060;-38
2022/03/22 00:28:06;;;;;;;38.92;16.95;;;9.60;99.90;;;;;;5011291;28;20030;-39
2022/03/22 00:30:33;;;;;;;39.42;17.13;;;9.60;99.90;;;;;;5012575;28;20052;-38
2022/03/22 00:33:02;;;;;;;43.53;18.45;;;9.50;99.90;;;;;;5011482;28;20029;-39
2022/03/22 00:35:29;;;;;;;40.28;16.85;;;9.60;99.90;;;;;;5011055;28;20029;-38
2022/03/22 00:37:57;;;;;;;37.60;16.48;;;9.50;99.90;;;;;;5011041;28;20025;-37
2022/03/22 00:40:24;;;;;;;29.73;11.88;;;9.50;99.90;;;;;;5012082;28;20026;-38
2022/03/22 00:42:53;;;;;;;40.47;17.10;;;9.50;99.90;;;;;;5012895;28;20038;-38
2022/03/22 00:45:23;;;;;;;33.25;16.55;;;9.50;99.90;;;;;;5011834;28;20017;-38
2022/03/22 00:47:51;;;;;;;37.00;18.30;;;9.50;99.90;;;;;;5015394;28;20401;-36
2022/03/22 00:50:19;;;;;;;35.17;17.30;;;9.50;99.90;;;;;;5015675;28;20022;-40
2022/03/22 00:52:46;;;;;;;40.03;17.70;;;9.50;99.90;;;;;;5013454;28;20397;-38
2022/03/22 00:55:12;;;;;;;40.25;17.95;;;9.40;99.90;;;;;;5015242;28;20481;-37
2022/03/22 00:57:39;;;;;;;38.35;17.67;;;9.40;99.90;;;;;;5015930;28;20064;-38
2022/03/22 01:00:09;;;;;;;38.42;17.65;;;9.40;99.90;;;;;;5013855;28;20018;-38
2022/03/22 01:02:37;;;;;;;37.42;15.85;;;9.40;99.90;;;;;;5013938;28;20033;-38
2022/03/22 01:05:06;;;;;;;41.72;18.67;;;9.40;99.90;;;;;;5015881;28;20025;-39
2022/03/22 01:07:33;;;;;;;43.17;17.50;;;9.40;99.90;;;;;;5015558;28;20019;-48
2022/03/22 01:10:00;;;;;;;43.53;16.90;;;9.40;99.90;;;;;;5015539;28;20133;-37
2022/03/22 01:12:26;;;;;;;36.95;17.63;;;9.40;99.90;;;;;;5015673;28;20610;-39
2022/03/22 01:14:52;;;;;;;46.60;16.95;;;9.40;99.90;;;;;;5015340;28;20153;-38
2022/03/22 01:17:19;;;;;;;36.20;16.85;;;9.40;99.90;;;;;;5014201;28;20068;-38
2022/03/22 01:19:46;;;;;;;40.37;18.20;;;9.40;99.90;;;;;;4996898;28;20026;-39
2022/03/22 01:22:11;;;;;;;44.50;18.52;;;9.40;99.90;;;;;;5014868;28;20029;-39
2022/03/22 01:24:37;;;;;;;38.13;16.23;;;9.30;99.90;;;;;;5015001;28;20026;-40
2022/03/22 01:27:04;;;;;;;40.90;17.77;;;9.30;99.90;;;;;;5013927;28;20478;-39
2022/03/22 01:29:29;;;;;;;36.72;16.20;;;9.20;99.90;;;;;;5015014;28;20022;-39
2022/03/22 01:31:55;;;;;;;37.92;17.83;;;9.10;99.90;;;;;;5013203;28;20025;-37
2022/03/22 01:34:22;;;;;;;37.63;15.90;;;9.10;99.90;;;;;;5015056;28;20485;-37
2022/03/22 01:36:48;;;;;;;31.23;13.60;;;9.10;99.90;;;;;;5015177;28;20397;-38
2022/03/22 01:39:13;;;;;;;43.55;18.98;;;9.10;99.90;;;;;;5015351;28;20033;-38
2022/03/22 01:41:39;;;;;;;32.83;17.00;;;9.00;99.90;;;;;;5014981;28;20105;-37
2022/03/22 01:44:05;;;;;;;39.85;17.20;;;9.00;99.90;;;;;;5015009;28;20033;-36
2022/03/22 01:46:34;;;;;;;37.90;16.50;;;9.10;99.90;;;;;;5013834;28;20014;-38
2022/03/22 01:49:00;;;;;;;42.50;18.33;;;9.10;99.90;;;;;;5014343;28;20037;-38
2022/03/22 01:51:27;;;;;;;41.58;17.88;;;9.10;99.90;;;;;;5014817;28;20033;-39
2022/03/22 01:53:54;;;;;;;40.72;18.17;;;9.10;99.90;;;;;;5013928;28;20040;-38
2022/03/22 01:56:19;;;;;;;44.22;18.35;;;9.10;99.90;;;;;;5013144;28;20029;-40
2022/03/22 01:58:45;;;;;;;37.63;17.10;;;9.00;99.90;;;;;;4995556;28;20041;-38
2022/03/22 02:06:41;;;;;;;37.15;17.73;;;8.90;99.90;;;;;;5014276;28;20045;-39
2022/03/22 02:09:07;;;;;;;35.22;16.70;;;8.90;99.90;;;;;;5013972;28;20034;-36
2022/03/22 02:11:34;;;;;;;37.88;17.85;;;8.90;99.90;;;;;;5014323;28;20390;-34
2022/03/22 02:14:00;;;;;;;40.88;18.92;;;8.90;99.90;;;;;;5012981;28;20026;-38
2022/03/22 02:16:26;;;;;;;39.78;17.90;;;8.90;99.90;;;;;;5014538;28;20037;-37
2022/03/22 02:18:53;;;;;;;39.30;15.90;;;8.90;99.90;;;;;;5014578;28;20559;-57
2022/03/22 02:21:19;;;;;;;33.25;15.80;;;8.90;99.90;;;;;;5013882;28;20037;-31
2022/03/22 02:23:53;;;;;;;42.08;17.55;;;8.90;99.90;;;;;;5013810;28;20033;-31
2022/03/22 02:26:21;;;;;;;35.05;16.80;;;8.90;99.90;;;;;;4995683;28;20450;-30
2022/03/22 02:28:47;;;;;;;37.65;17.83;;;8.90;99.90;;;;;;5013323;28;20049;-37
2022/03/22 02:31:15;;;;;;;42.47;18.40;;;8.90;99.90;;;;;;4996184;28;20038;-34
2022/03/22 02:33:42;;;;;;;42.97;17.88;;;9.00;99.90;;;;;;5013818;28;20581;-30
2022/03/22 02:36:08;;;;;;;31.98;15.07;;;9.00;99.90;;;;;;5014073;28;20030;-32
2022/03/22 02:38:34;;;;;;;31.90;16.55;;;9.10;99.90;;;;;;5014269;28;20036;-32
2022/03/22 02:41:00;;;;;;;36.58;16.63;;;9.00;99.90;;;;;;5013551;28;20485;-33
2022/03/22 02:43:26;;;;;;;34.92;17.10;;;9.10;99.90;;;;;;5013108;28;20022;-33
2022/03/22 02:45:52;;;;;;;34.00;17.13;;;9.00;99.90;;;;;;5013540;28;20033;-32
2022/03/22 02:48:18;;;;;;;28.83;14.65;;;9.10;99.90;;;;;;5013870;28;20421;-35
2022/03/22 02:50:44;;;;;;;37.17;17.45;;;9.10;99.90;;;;;;5013783;28;20481;-31
2022/03/22 02:53:10;;;;;;;37.33;18.35;;;9.10;99.90;;;;;;5013135;28;20030;-30
2022/03/22 02:58:20;;;;;;;31.73;14.73;;;9.10;99.90;;;;;;5014090;28;20075;-36
2022/03/22 03:00:46;;;;;;;36.28;16.35;;;9.10;99.90;;;;;;5013163;28;20037;-33
2022/03/22 03:03:11;;;;;;;31.48;15.23;;;9.10;99.90;;;;;;5012973;28;20026;-31
2022/03/22 03:05:37;;;;;;;32.58;16.42;;;9.10;99.90;;;;;;5013510;28;20129;-34
2022/03/22 03:08:03;;;;;;;33.72;16.38;;;9.10;99.90;;;;;;5013224;28;20025;-44
2022/03/22 03:10:29;;;;;;;33.45;15.88;;;9.20;99.90;;;;;;5013061;28;20498;-36
2022/03/22 03:13:03;;;;;;;36.17;15.57;;;9.30;99.90;;;;;;5012741;28;20512;-40
2022/03/22 03:15:29;;;;;;;36.75;16.17;;;9.40;99.90;;;;;;5012516;28;20038;-39
2022/03/22 03:17:54;;;;;;;31.63;15.50;;;9.50;99.90;;;;;;5013279;28;20040;-40
2022/03/22 03:20:20;;;;;;;33.88;15.05;;;9.60;99.90;;;;;;4995726;28;20057;-39
2022/03/22 03:22:46;;;;;;;34.85;15.00;;;9.70;99.90;;;;;;5012326;28;20018;-40
2022/03/22 03:25:11;;;;;;;35.78;16.10;;;9.80;99.90;;;;;;5012623;28;20081;-38
2022/03/22 03:27:37;;;;;;;31.27;16.65;;;9.90;99.90;;;;;;5013069;28;20030;-39
2022/03/22 03:30:05;;;;;;;34.35;16.00;;;10.00;99.90;;;;;;4995998;28;20022;-36
2022/03/22 03:32:31;;;;;;;37.63;15.40;;;9.90;99.90;;;;;;5012521;28;20121;-39
2022/03/22 03:34:57;;;;;;;39.15;16.92;;;9.90;99.90;;;;;;5012988;28;20030;-39
2022/03/22 03:37:24;;;;;;;30.20;15.00;;;9.90;99.90;;;;;;5012429;28;20410;-37
2022/03/22 03:39:50;;;;;;;39.80;15.68;;;9.80;99.90;;;;;;5012686;28;20029;-38
2022/03/22 03:42:16;;;;;;;35.20;16.88;;;9.80;99.90;;;;;;5012596;28;20169;-38
2022/03/22 03:47:26;;;;;;;29.60;15.15;;;10.00;99.90;;;;;;5012850;28;20521;-38
2022/03/22 03:50:00;;;;;;;39.50;16.85;;;10.00;99.90;;;;;;5013307;28;20050;-39
2022/03/22 03:52:31;;;;;;;35.95;15.75;;;10.00;99.90;;;;;;5012602;28;20030;-39
2022/03/22 03:54:58;;;;;;;41.85;16.20;;;10.00;99.90;;;;;;5012853;28;20026;-39
2022/03/22 03:57:25;;;;;;;33.00;17.43;;;10.00;99.90;;;;;;5012940;28;20033;-38
2022/03/22 03:59:51;;;;;;;29.77;15.45;;;10.00;99.90;;;;;;5012875;28;20044;-39
2022/03/22 04:02:18;;;;;;;32.33;15.32;;;10.00;99.90;;;;;;5012431;28;20421;-39
2022/03/22 04:04:47;;;;;;;31.30;14.63;;;10.00;99.90;;;;;;5012505;28;20039;-50
2022/03/22 04:07:13;;;;;;;35.33;15.38;;;10.00;99.90;;;;;;5012789;28;20014;-39
2022/03/22 04:09:39;;;;;;;34.55;14.73;;;10.00;99.90;;;;;;5012594;28;20080;-37
2022/03/22 04:12:06;;;;;;;31.15;15.32;;;10.00;99.90;;;;;;5012304;28;20044;-37
2022/03/22 04:14:32;;;;;;;30.88;15.32;;;10.00;99.90;;;;;;4995714;28;20022;-39
2022/03/22 04:17:01;;;;;;;32.15;14.07;;;10.00;99.90;;;;;;5012606;28;20030;-39
2022/03/22 04:19:28;;;;;;;29.65;14.98;;;10.00;99.90;;;;;;4995972;28;20532;-39
2022/03/22 04:21:55;;;;;;;30.50;15.10;;;9.90;99.90;;;;;;5015161;28;20033;-39
2022/03/22 04:24:21;;;;;;;31.55;15.20;;;9.90;99.90;;;;;;4999019;28;20124;-38
2022/03/22 04:26:47;;;;;;;34.25;15.52;;;9.90;99.90;;;;;;4998735;28;20026;-35
2022/03/22 04:34:48;;;;;;;36.45;16.67;;;10.00;99.90;;;;;;5016835;28;20059;-37
2022/03/22 04:37:15;;;;;;;31.92;15.50;;;10.00;99.90;;;;;;5016136;28;20021;-37
2022/03/22 04:39:45;;;;;;;36.05;15.05;;;9.90;99.90;;;;;;4998819;28;20032;-36
2022/03/22 04:42:15;;;;;;;32.78;15.90;;;9.90;99.90;;;;;;4997715;28;20053;-34
2022/03/22 04:44:42;;;;;;;38.47;14.82;;;9.90;99.90;;;;;;5016334;28;20366;-34
2022/03/22 04:47:08;;;;;;;31.45;13.77;;;10.00;99.90;;;;;;4997776;28;20042;-33
2022/03/22 04:49:34;;;;;;;30.08;14.38;;;10.00;99.90;;;;;;5016034;28;20025;-33
2022/03/22 04:57:28;;;;;;;28.88;14.95;;;9.90;99.90;;;;;;5016312;28;20044;-36
2022/03/22 04:59:54;;;;;;;32.65;14.98;;;9.90;99.90;;;;;;5014004;28;20042;-32
2022/03/22 05:02:21;;;;;;;34.40;15.65;;;9.90;99.90;;;;;;5013558;28;20397;-36
2022/03/22 05:04:47;;;;;;;32.75;15.52;;;9.80;99.90;;;;;;5009243;28;20133;-40
2022/03/22 05:07:13;;;;;;;27.00;13.85;;;9.70;99.90;;;;;;4998161;28;20040;-41
2022/03/22 05:09:50;;;;;;;36.25;14.95;;;9.70;99.90;;;;;;5015184;28;20128;-43
2022/03/22 05:12:15;;;;;;;36.20;14.80;;;9.70;99.90;;;;;;5015595;28;20037;-35
2022/03/22 05:14:42;;;;;;;28.08;14.18;;;9.80;99.90;;;;;;5015793;28;20037;-30
2022/03/22 05:17:11;;;;;;;31.70;14.55;;;9.80;99.90;;;;;;5015252;28;20112;-33
2022/03/22 05:19:38;;;;;;;36.40;15.40;;;9.70;99.90;;;;;;5014989;28;20105;-44
2022/03/22 05:22:06;;;;;;;34.92;15.10;;;9.70;99.90;;;;;;5015621;28;20022;-33
2022/03/22 05:24:32;;;;;;;32.83;14.80;;;9.70;99.90;;;;;;5015641;28;20411;-39
2022/03/22 05:26:59;;;;;;;29.60;14.63;;;9.70;99.90;;;;;;5015253;28;20095;-34
2022/03/22 05:29:24;;;;;;;28.13;15.00;;;9.60;99.90;;;;;;5015345;28;20526;-43
2022/03/22 05:31:50;;;;;;;30.98;13.90;;;9.60;99.90;;;;;;5013792;28;20114;-38
2022/03/22 05:34:16;;;;;;;33.42;15.45;;;9.60;99.90;;;;;;5014552;28;20111;-31
2022/03/22 05:36:42;;;;;;;36.90;14.57;;;9.60;99.90;;;;;;5015377;28;20065;-37
2022/03/22 05:39:11;;;;;;;33.40;16.02;;;9.70;99.90;;;;;;4996970;28;20057;-31
2022/03/22 05:41:36;;;;;;;30.73;14.43;;;9.70;99.90;;;;;;5014950;28;20041;-32
2022/03/22 05:44:03;;;;;;;35.50;14.23;;;9.60;99.90;;;;;;4997788;28;20406;-34
2022/03/22 05:46:29;;;;;;;30.75;13.90;;;9.50;99.90;;;;;;5013647;28;20030;-35
2022/03/22 05:48:55;;;;;;;31.55;14.68;;;9.50;99.90;;;;;;4997071;28;20092;-35
2022/03/22 05:51:22;;;;;;;28.92;13.75;;;9.60;99.90;;;;;;5016272;28;20022;-49
2022/03/22 05:53:48;;;;;;;28.17;14.00;;;9.50;99.90;;;;;;5016081;28;20022;-48
2022/03/22 05:56:15;;;;;;;29.75;14.98;;;9.50;99.90;;;;;;5022460;28;20022;-48
2022/03/22 05:58:40;;;;;;;29.27;13.82;;;9.40;99.90;;;;;;5034973;28;20478;-48
2022/03/22 06:01:07;;;;;;;32.05;13.85;;;9.50;99.90;;;;;;5002477;28;20021;-51
2022/03/22 06:03:34;;;;;;;29.05;14.38;;;9.40;99.90;;;;;;5014460;28;20049;-50
2022/03/22 06:06:00;;;;;;;34.83;15.20;;;9.40;99.90;;;;;;5014626;28;20394;-52
2022/03/22 06:08:27;;;;;;;31.08;13.20;;;9.40;99.90;;;;;;5015206;28;20410;-48
2022/03/22 06:10:52;;;;;;;34.80;15.18;;;9.40;99.90;;;;;;4996645;28;20498;-47
2022/03/22 06:13:18;;;;;;;26.45;14.07;;;9.50;99.90;;;;;;4996542;28;20037;-48
2022/03/22 06:15:44;;;;;;;33.65;14.73;;;9.60;99.90;;;;;;5014641;28;20037;-47
2022/03/22 06:18:16;;;;;;;32.28;13.43;;;9.70;99.90;;;;;;5019822;28;20030;-49
2022/03/22 06:20:45;;;;;;;26.50;13.45;;;9.70;99.90;;;;;;5018362;28;20036;-32
2022/03/22 06:23:13;;;;;;;32.85;15.15;;;9.70;99.90;;;;;;5015283;28;20032;-37
2022/03/22 06:25:40;;;;;;;;;;;9.70;99.90;;;;;;5014649;28;20025;-42
2022/03/22 06:28:07;;;;;;;33.35;14.60;;;9.80;99.90;;;;;;5014213;28;20369;-40
2022/03/22 06:30:34;;;;;;;35.87;13.40;;;9.80;99.90;;;;;;5013692;28;20052;-35
2022/03/22 06:33:12;;;;;;;34.83;14.02;;;9.90;99.90;;;;;;4995925;28;20402;-36
2022/03/22 06:35:42;;;;;;;33.88;14.43;;;9.80;99.90;;;;;;4995711;28;20038;-40
2022/03/22 06:38:08;;;;;;;25.02;14.32;;;9.90;99.90;;;;;;5014068;28;20041;-38
2022/03/22 06:40:34;;;;;;;29.02;12.75;;;9.90;99.90;;;;;;5013910;28;20037;-34
2022/03/22 06:43:06;;;;;;;27.70;13.63;;;9.90;99.90;;;;;;5013657;28;20037;-31
2022/03/22 06:45:32;;;;;;;33.72;14.07;;;9.90;99.90;;;;;;5012198;28;20462;-33
2022/03/22 06:48:16;;;;;;;27.75;13.88;;;10.00;99.90;;;;;;5013835;28;20025;-32
2022/03/22 06:50:43;;;;;;;26.80;13.77;;;10.00;99.90;;;;;;5013671;28;20022;-30
2022/03/22 06:53:10;;;;;;;30.88;14.25;;;10.00;99.90;;;;;;5013565;28;20038;-32
2022/03/22 06:55:37;;;;;;;31.73;12.90;;;10.10;99.90;;;;;;5013131;28;20568;-33
2022/03/22 06:58:04;;;;;;;29.70;13.25;;;10.10;99.90;;;;;;5013929;28;20470;-43
2022/03/22 07:00:31;;;;;;;26.52;14.07;;;10.10;99.90;;;;;;5013024;28;20048;-30
2022/03/22 07:02:58;;;;;;;33.40;14.65;;;10.20;99.90;;;;;;5012335;28;20036;-29
2022/03/22 07:05:24;;;;;;;27.00;13.60;;;10.30;99.90;;;;;;5013564;28;20381;-42
2022/03/22 07:07:50;;;;;;;33.88;15.18;;;10.40;99.90;;;;;;5013547;28;20038;-30
2022/03/22 07:10:17;;;;;;;32.58;13.98;;;10.40;99.90;;;;;;5012849;28;20076;-31
2022/03/22 07:12:51;;;;;;;20.63;10.40;;;10.40;99.90;;;;;;5012859;28;20386;-33
2022/03/22 07:15:27;;;;;;;32.22;14.07;;;10.40;99.90;;;;;;5013113;28;20030;-34
2022/03/22 07:17:53;;;;;;;35.08;15.05;;;10.40;99.90;;;;;;5013402;28;20068;-31
2022/03/22 07:20:20;;;;;;;24.75;13.82;;;10.50;99.90;;;;;;5012743;28;20391;-34
2022/03/22 07:22:47;;;;;;;31.83;14.50;;;10.60;99.90;;;;;;5013152;28;20045;-36
2022/03/22 07:25:12;;;;;;;30.27;14.95;;;10.60;99.90;;;;;;5012889;28;20094;-31
2022/03/22 07:27:38;;;;;;;35.60;14.48;;;10.70;99.90;;;;;;5013174;28;20060;-34
2022/03/22 07:30:05;;;;;;;31.20;13.93;;;10.80;99.90;;;;;;5013117;28;20490;-39
2022/03/22 07:32:31;;;;;;;28.00;13.57;;;10.80;99.90;;;;;;5012945;28;20025;-33
2022/03/22 07:35:00;;;;;;;33.65;13.52;;;10.90;99.90;;;;;;5013085;28;20482;-36
2022/03/22 07:37:28;;;;;;;27.88;14.43;;;11.10;99.90;;;;;;5012408;28;20022;-31
2022/03/22 07:39:57;;;;;;;26.25;14.63;;;11.10;99.90;;;;;;5012665;28;20486;-36
2022/03/22 07:42:27;;;;;;;27.92;13.80;;;11.30;99.90;;;;;;5012210;28;20549;-35
2022/03/22 07:44:55;;;;;;;31.05;14.65;;;11.40;99.90;;;;;;4995158;28;20049;-34
2022/03/22 07:47:20;;;;;;;31.08;14.40;;;11.40;99.90;;;;;;5012480;28;20026;-34
2022/03/22 07:55:19;;;;;;;25.70;13.40;;;11.80;99.90;;;;;;5012622;28;20041;-31
2022/03/22 07:57:45;;;;;;;29.35;13.52;;;11.90;99.90;;;;;;5016937;28;20034;-30
2022/03/22 08:00:12;;;;;;;25.92;12.88;;;12.00;99.90;;;;;;5016796;28;20480;-34
2022/03/22 08:02:37;;;;;;;33.13;13.68;;;12.10;99.90;;;;;;4998340;28;20034;-30
2022/03/22 08:05:08;;;;;;;27.38;14.13;;;12.10;99.90;;;;;;5016765;28;20485;-36
2022/03/22 08:07:33;;;;;;;28.35;14.07;;;12.20;99.90;;;;;;5016965;28;20033;-33
2022/03/22 08:09:59;;;;;;;32.97;15.13;;;12.40;99.90;;;;;;5016227;28;20026;-33
2022/03/22 08:12:25;;;;;;;33.95;15.23;;;12.60;99.90;;;;;;5016347;28;20057;-33
2022/03/22 08:14:51;;;;;;;32.58;14.60;;;12.60;99.90;;;;;;5016323;28;20038;-41
2022/03/22 08:17:16;;;;;;;31.70;15.00;;;12.70;99.90;;;;;;5016193;28;20026;-40
2022/03/22 08:19:42;;;;;;;28.23;13.20;;;12.80;99.90;;;;;;5016152;28;20049;-36
2022/03/22 08:22:08;;;;;;;31.75;14.07;;;12.90;99.90;;;;;;5016461;28;20466;-35
2022/03/22 08:24:34;;;;;;;26.70;14.20;;;13.00;99.90;;;;;;5015686;28;20037;-35
2022/03/22 08:27:00;;;;;;;33.88;14.23;;;13.20;99.90;;;;;;4997809;28;20401;-33
2022/03/22 08:29:26;;;;;;;42.17;16.17;;;13.30;99.90;;;;;;5014175;28;20026;-35
2022/03/22 08:31:52;;;;;;;22.00;12.85;;;13.50;99.90;;;;;;5016142;28;20030;-34
2022/03/22 08:34:19;;;;;;;27.67;13.02;;;13.60;99.90;;;;;;5016102;28;20490;-30
2022/03/22 08:36:45;;;;;;;28.17;14.30;;;13.80;99.90;;;;;;5016528;28;20026;-32
2022/03/22 08:39:11;;;;;;;28.83;14.13;;;13.90;99.90;;;;;;5016024;28;20279;-31
2022/03/22 08:41:37;;;;;;;26.38;13.77;;;14.00;99.90;;;;;;5016343;28;20037;-30
2022/03/22 08:44:03;;;;;;;30.10;13.45;;;14.10;99.90;;;;;;5015323;28;20378;-33
2022/03/22 08:46:29;;;;;;;24.80;13.27;;;14.20;99.90;;;;;;5015826;28;20030;-51
2022/03/22 08:48:55;;;;;;;28.75;14.20;;;14.30;99.90;;;;;;5015177;28;20028;-29
2022/03/22 08:51:24;;;;;;;22.48;13.80;;;14.30;99.90;;;;;;4998417;28;20448;-31
2022/03/22 08:53:49;;;;;;;25.58;13.13;;;14.50;99.90;;;;;;5015924;28;20381;-32
2022/03/22 08:56:15;;;;;;;30.45;13.93;;;14.70;99.90;;;;;;5015681;28;20121;-31
2022/03/22 08:58:41;;;;;;;32.08;13.73;;;14.70;99.90;;;;;;5014921;28;20021;-49
2022/03/22 09:01:07;;;;;;;30.73;14.32;;;14.80;99.90;;;;;;5014792;28;20053;-36
2022/03/22 09:03:35;;;;;;;28.40;13.13;;;14.90;99.90;;;;;;5015751;28;20038;-31
2022/03/22 09:06:12;;;;;;;24.63;12.68;;;15.00;99.90;;;;;;5015329;28;20034;-34
2022/03/22 09:08:39;;;;;;;27.20;13.13;;;15.20;99.90;;;;;;5015440;28;20050;-32
2022/03/22 09:11:06;;;;;;;26.42;12.80;;;15.40;99.90;;;;;;5015266;28;20132;-30
2022/03/22 09:13:33;;;;;;;21.73;13.00;;;15.50;99.90;;;;;;5014229;28;20084;-32
2022/03/22 09:15:59;;;;;;;28.83;12.18;;;15.50;99.90;;;;;;5014898;28;20026;-33
2022/03/22 09:18:26;;;;;;;26.40;13.18;;;15.60;99.90;;;;;;5014165;28;20026;-31
2022/03/22 09:20:52;;;;;;;22.48;13.05;;;15.70;99.90;;;;;;5014517;28;20551;-32
2022/03/22 09:23:18;;;;;;;26.15;12.80;;;15.80;99.90;;;;;;5015192;28;20159;-32
2022/03/22 09:26:03;;;;;;;28.13;13.15;;;16.00;99.90;;;;;;5014563;28;20026;-34
2022/03/22 09:28:28;;;;;;;26.90;13.68;;;16.30;99.50;;;;;;5012831;28;20390;-36
2022/03/22 09:30:54;;;;;;;24.60;13.45;;;16.30;99.20;;;;;;5015044;28;20022;-30
2022/03/22 09:33:20;;;;;;;31.60;14.65;;;16.40;99.60;;;;;;5014910;28;20022;-30
2022/03/22 09:35:48;;;;;;;25.05;13.63;;;16.40;99.80;;;;;;5013953;28;20022;-37
2022/03/22 09:38:14;;;;;;;41.78;14.10;;;16.40;99.80;;;;;;5014983;28;20037;-33
2022/03/22 09:40:40;;;;;;;29.17;12.65;;;16.60;99.50;;;;;;5014556;28;20542;-31
2022/03/22 09:43:08;;;;;;;20.63;12.05;;;16.80;98.70;;;;;;5015010;28;20022;-38
2022/03/22 09:45:34;;;;;;;24.30;12.05;;;16.80;98.90;;;;;;5013787;28;20466;-33
2022/03/22 09:48:00;;;;;;;22.42;12.10;;;17.00;98.90;;;;;;5014118;28;20026;-36
2022/03/22 09:53:15;;;;;;;28.23;14.40;;;17.20;98.30;;;;;;5014583;28;20441;-33
2022/03/22 09:55:41;;;;;;;27.15;12.80;;;17.30;98.00;;;;;;4996638;28;20026;-51
2022/03/22 09:58:12;;;;;;;45.10;14.65;;;17.40;98.40;;;;;;5014746;28;20033;-33
2022/03/22 10:00:38;;;;;;;20.85;12.32;;;17.50;97.90;;;;;;4996959;28;20025;-32
2022/03/22 10:03:05;;;;;;;22.02;11.93;;;17.70;97.30;;;;;;5013984;28;20073;-33
2022/03/22 10:05:30;;;;;;;22.85;12.20;;;17.70;97.70;;;;;;5012368;28;20026;-37
2022/03/22 10:08:03;;;;;;;21.63;11.70;;;17.80;97.90;;;;;;5013507;28;20419;-39
2022/03/22 10:10:29;;;;;;;24.77;13.07;;;17.90;97.40;;;;;;5012153;28;20030;-38
2022/03/22 10:13:01;;;;;;;20.30;12.65;;;18.00;96.80;;;;;;5014087;28;20029;-39
2022/03/22 10:15:37;;;;;;;21.42;12.15;;;18.00;97.10;;;;;;5011669;28;20025;-38
2022/03/22 10:18:05;;;;;;;22.08;12.48;;;18.10;96.90;;;;;;4999492;28;20030;-39
2022/03/22 10:20:34;;;;;;;22.95;13.07;;;18.20;96.50;;;;;;4996403;28;20030;-39
2022/03/22 10:23:01;;;;;;;20.17;11.93;;;18.30;96.90;;;;;;5012362;28;20034;-38
2022/03/22 10:25:31;;;;;;;24.52;13.25;;;18.30;96.70;;;;;;5013836;28;20107;-39
2022/03/22 10:27:59;;;;;;;22.20;12.43;;;18.40;96.20;;;;;;5013953;28;20018;-38
2022/03/22 10:30:25;;;;;;;26.67;12.93;;;18.40;96.40;;;;;;5014290;28;20409;-37
2022/03/22 10:32:51;;;;;;;22.38;11.82;;;18.50;96.70;;;;;;5014146;28;20065;-39
2022/03/22 10:35:22;;;;;;;22.00;11.18;;;18.60;95.90;;;;;;5014249;28;20083;-38
2022/03/22 10:37:53;;;;;;;22.65;10.85;;;18.60;96.30;;;;;;4995395;28;20044;-38
2022/03/22 10:40:31;;;;;;;19.77;10.70;;;18.60;96.30;;;;;;4996424;28;20493;-38
2022/03/22 10:43:07;;;;;;;;;;;18.70;96.40;;;;;;4993160;28;20041;-38
2022/03/22 10:45:59;;;;;;;29.23;13.40;;;18.80;96.00;;;;;;5006418;28;19910;-39
2022/03/22 10:48:27;;;;;;;22.98;11.68;;;19.10;96.30;;;;;;4987716;28;20120;-39
2022/03/22 10:50:55;;;;;;;20.80;11.52;;;19.20;96.30;;;;;;5005966;28;20084;-36
2022/03/22 10:53:22;;;;;;;23.30;13.48;;;19.40;96.20;;;;;;4987998;28;20520;-39
2022/03/22 10:55:48;;;;;;;23.30;13.13;;;19.60;95.90;;;;;;5006679;28;20026;-39
2022/03/22 10:58:17;;;;;;;23.92;13.10;;;19.70;95.70;;;;;;5006621;28;20429;-39
2022/03/22 11:00:44;;;;;;;23.67;13.30;;;19.70;96.10;;;;;;5006212;28;20044;-35
2022/03/22 11:03:11;;;;;;;25.77;13.05;;;19.90;95.70;;;;;;5005332;28;20121;-38
2022/03/22 11:05:45;;;;;;;26.80;13.30;;;19.90;96.20;;;;;;5006495;28;20025;-38
2022/03/22 11:08:11;;;;;;;23.05;13.02;;;20.10;95.20;;;;;;5006598;28;20385;-40
2022/03/22 11:10:38;;;;;;;29.52;13.10;;;20.20;95.60;;;;;;5006817;28;20034;-45
2022/03/22 11:13:04;;;;;;;32.25;13.98;;;20.20;95.40;;;;;;5007705;28;20036;-38
2022/03/22 11:15:38;;;;;;;26.42;13.50;;;20.30;94.90;;;;;;5005675;28;20034;-40
2022/03/22 11:18:07;;;;;;;29.02;14.48;;;20.30;95.10;;;;;;5005019;28;21113;-38
2022/03/22 11:20:33;;;;;;;24.98;13.18;;;20.30;95.50;;;;;;5005389;28;20025;-38
2022/03/22 11:23:00;;;;;;;27.83;13.63;;;20.40;94.70;;;;;;5001760;28;20481;-38
2022/03/22 11:25:32;;;;;;;22.88;12.80;;;20.50;95.00;;;;;;4998985;28;20492;-38
2022/03/22 11:28:09;;;;;;;23.33;12.95;;;20.40;94.70;;;;;;4980359;28;20030;-39
2022/03/22 11:30:38;;;;;;;23.00;11.95;;;20.40;95.00;;;;;;4998738;28;20036;-33
2022/03/22 11:36:19;;;;;;;25.63;12.07;;;20.50;94.40;;;;;;4998248;28;20069;-38
2022/03/22 11:38:52;;;;;;;23.60;11.00;;;20.70;94.40;;;;;;4997483;28;20081;-39
2022/03/22 11:44:14;;;;;;;19.13;10.32;;;21.00;93.20;;;;;;4997433;28;20048;-38
2022/03/22 11:46:41;;;;;;;20.55;10.18;;;21.10;92.60;;;;;;5001448;28;20062;-39
2022/03/22 11:49:18;;;;;;;19.88;10.55;;;21.10;92.60;;;;;;5002021;28;20025;-39
2022/03/22 11:51:48;;;;;;;;;;;21.00;92.70;;;;;;5012060;28;20097;-38
2022/03/22 11:54:13;;;;;;;22.60;11.13;;;21.10;92.80;;;;;;5008504;28;19980;-40
2022/03/22 11:56:51;;;;;;;20.10;10.73;;;21.20;93.00;;;;;;4999802;28;20056;-38
2022/03/22 11:59:19;;;;;;;19.38;10.98;;;21.30;92.50;;;;;;5010687;28;20025;-43
2022/03/22 12:02:03;;;;;;;20.85;10.77;;;21.40;92.10;;;;;;5012406;28;20544;-38
2022/03/22 12:04:35;;;;;;;22.05;10.98;;;21.50;92.30;;;;;;5012430;28;20088;-38
2022/03/22 12:07:02;;;;;;;20.83;11.18;;;21.60;92.20;;;;;;5012508;28;20481;-41
2022/03/22 12:09:28;;;;;;;20.65;10.40;;;21.70;92.10;;;;;;5008714;28;20018;-38
2022/03/22 12:11:55;;;;;;;20.45;9.43;;;21.70;92.10;;;;;;5005240;28;20048;-36
2022/03/22 12:14:28;;;;;;;18.17;9.50;;;21.80;91.70;;;;;;5009418;28;20067;-31
2022/03/22 12:16:56;;;;;;;16.88;9.63;;;21.90;90.80;;;;;;5009776;28;20034;-33
2022/03/22 12:19:34;;;;;;;20.35;8.98;;;21.90;90.60;;;;;;5009457;28;20026;-36
2022/03/22 12:22:02;;;;;;;;;;;21.80;90.80;;;;;;5011157;28;20026;-31
2022/03/22 12:24:33;;;;;;;13.88;6.78;;;21.80;90.50;;;;;;5011886;28;19956;-36
2022/03/22 12:27:17;;;;;;;9.80;5.25;;;22.00;89.10;;;;;;5010360;28;20029;-34
2022/03/22 12:29:45;;;;;;;9.45;5.43;;;22.00;87.90;;;;;;5011154;28;20030;-32
2022/03/22 12:32:19;;;;;;;14.13;6.03;;;22.00;88.90;;;;;;5011663;28;20038;-34
2022/03/22 12:34:45;;;;;;;14.48;6.25;;;22.10;88.40;;;;;;5011869;28;20032;-32
2022/03/22 12:37:13;;;;;;;13.10;5.80;;;22.10;88.20;;;;;;5010965;28;20097;-35
2022/03/22 12:39:41;;;;;;;16.55;6.03;;;22.20;87.70;;;;;;5011009;28;20540;-37
2022/03/22 12:42:08;;;;;;;10.90;6.60;;;22.40;88.70;;;;;;5010265;28;20045;-33
2022/03/22 12:44:35;;;;;;;11.35;6.65;;;22.50;88.40;;;;;;5014430;28;20114;-34
2022/03/22 12:47:05;;;;;;;15.35;6.85;;;22.70;87.20;;;;;;4997248;28;20057;-37
2022/03/22 12:49:37;;;;;;;24.17;6.63;;;22.80;87.40;;;;;;5015026;28;20030;-33
2022/03/22 12:52:03;;;;;;;11.63;6.38;;;22.80;86.30;;;;;;5012276;28;20037;-32
2022/03/22 12:54:48;;;;;;;10.02;5.80;;;22.70;85.50;;;;;;5014070;28;20415;-36
2022/03/22 12:57:16;;;;;;;16.27;7.38;;;22.50;86.40;;;;;;5015720;28;20425;-30
2022/03/22 12:59:42;;;;;;;10.23;6.05;;;22.50;85.90;;;;;;5011460;28;20030;-34
2022/03/22 13:02:09;;;;;;;13.17;6.77;;;22.50;87.20;;;;;;5012638;28;20088;-39
2022/03/22 13:04:46;;;;;;;13.43;6.72;;;22.60;86.60;;;;;;5004590;28;20022;-32
2022/03/22 13:07:21;;;;;;;16.95;6.88;;;22.80;86.30;;;;;;5013356;28;20540;-33
2022/03/22 13:12:33;;;;;;;15.63;7.43;;;22.90;87.00;;;;;;4992504;28;20793;-31
2022/03/22 13:15:13;;;;;;;17.33;7.53;;;22.80;86.00;;;;;;5009998;28;20541;-36